NCAR-RAP Real-Time Weather Data

Output produced by METARs form (24 January 2022  22:15 UTC)
found at http://weather.rap.ucar.edu/surface/
 
KSEA 242153Z 36004KT 1/2SM R16L/P6000FT BR OVC002 03/02 A3028 RMK AO2 SFC VIS 1 1/2 SLP263 T00330022
KSEA 242132Z 36003KT 1/2SM R16L/P6000FT BR OVC002 03/02 A3028 RMK AO2 SFC VIS 1 T00330022 $
KSEA 242053Z 00000KT 1/4SM R16L/2800VP6000FT BR OVC001 03/03 A3029 RMK AO2 SFC VIS 3/4 SLP267 T00330028 58001 $
KSEA 241953Z 01004KT 1/2SM R16L/2400VP6000FT FG OVC002 03/02 A3030 RMK AO2 SLP272 T00280022 $
KSEA 241919Z 02004KT 1/2SM R16L/4000VP6000FT FG OVC002 03/02 A3031 RMK AO2 T00280022 $
KSEA 241853Z 03005KT 1/4SM R16L/2400VP6000FT FG VV002 03/02 A3032 RMK AO2 TWR VIS 1/2 SLP276 T00280022 $
KSEA 241827Z 06006KT 1/4SM R16L/2800VP6000FT FG VV002 02/02 A3031 RMK AO2 T00220017 $
KSEA 241753Z 07003KT 1/4SM R16L/2000VP6000FT FG VV001 02/02 A3029 RMK AO2 SLP269 T00170017 10022 20011 53012 $
KSEA 241708Z 03004KT 1/4SM R16L/1400V2600FT FG VV001 02/02 A3028 RMK AO2 T00170017 $
KSEA 241653Z 04003KT 1/4SM R16L/1200V1800FT FG VV001 02/02 A3028 RMK AO2 SLP264 T00170017 $
KSEA 241642Z 05004KT 1/4SM R16L/1400V2000FT FG VV001 02/02 A3027 RMK AO2 T00170017 $
KSEA 241634Z 04003KT M1/4SM R16L/1200V1800FT FG VV001 02/01 A3027 RMK AO2 TWR VIS 1/4 T00170011 $
KSEA 241618Z 00000KT M1/4SM R16L/1400V2600FT FG VV001 02/01 A3027 RMK AO2 TWR VIS 1/4 T00170011 $
KSEA 241553Z 00000KT 1/4SM R16L/1400V2800FT FG VV001 02/01 A3026 RMK AO2 SLP258 T00170011 $